Latest Weather Observations for Ocean Reef

IDW60801

Issued at 8:02 pm WST Saturday 28 February 2015 (issued every 30 minutes, with the page automatically refreshed every 10 minutes)

About weather observations | Map of weather stations | Latest weather observations for WA | Other Formats
Station Details ID: 009214 Name: OCEAN REEF Lat: -31.76 Lon: 115.73 Height: 10.0 m
Data from the previous 72 hours. | See also: Recent months for locations in Western Australia
Date/Time
WST
Temp
°C
App
Temp
°C
Dew
Point
Rel
Hum
%
Delta-T
°C
Wind Press
QNH
hPa
Press
MSL
hPa
Rain
since 9 am
mm
Dir
 
Spd
km/h
Gust
km/h
Spd
kts
Gust
kts
28/08:00pm - - - - - S 39 46 21 25 - - -
28/07:30pm - - - - - S 41 50 22 27 - - -
28/07:00pm - - - - - S 41 50 22 27 - - -
28/06:30pm - - - - - S 39 48 21 26 - - -
28/06:00pm - - - - - S 39 50 21 27 - - -
28/05:30pm - - - - - S 41 50 22 27 - - -
28/05:00pm - - - - - SSW 41 50 22 27 - - -
28/04:30pm - - - - - SSW 43 50 23 27 - - -
28/04:00pm - - - - - SSW 39 46 21 25 - - -
28/03:30pm - - - - - SSW 39 46 21 25 - - -
28/03:00pm - - - - - SSW 37 46 20 25 - - -
28/02:30pm - - - - - SSW 35 41 19 22 - - -
28/02:00pm - - - - - SSW 35 43 19 23 - - -
28/01:30pm - - - - - SW 30 39 16 21 - - -
28/01:00pm - - - - - SSE 19 30 10 16 - - -
28/12:30pm - - - - - ESE 15 28 8 15 - - -
28/12:00pm - - - - - SE 19 30 10 16 - - -
28/11:30am - - - - - ESE 15 35 8 19 - - -
28/11:00am - - - - - SE 19 26 10 14 - - -
28/10:30am - - - - - SE 19 30 10 16 - - -
28/10:00am - - - - - ESE 20 32 11 17 - - -
28/09:30am - - - - - ESE 20 30 11 16 - - -
28/09:00am - - - - - SE 22 33 12 18 - - -
28/08:30am - - - - - ESE 22 33 12 18 - - -
28/08:00am - - - - - ESE 28 37 15 20 - - -
28/07:30am - - - - - ESE 19 28 10 15 - - -
28/07:00am - - - - - ESE 17 22 9 12 - - -
28/06:30am - - - - - SE 17 28 9 15 - - -
28/06:00am - - - - - SE 15 22 8 12 - - -
28/05:30am - - - - - SE 15 20 8 11 - - -
28/05:00am - - - - - SE 13 19 7 10 - - -
28/04:30am - - - - - SE 11 15 6 8 - - -
28/04:00am - - - - - SE 13 15 7 8 - - -
28/03:30am - - - - - SSE 11 15 6 8 - - -
28/03:00am - - - - - SSE 15 19 8 10 - - -
28/02:30am - - - - - SSE 15 20 8 11 - - -
28/02:00am - - - - - SSE 17 28 9 15 - - -
28/01:30am - - - - - SSE 15 22 8 12 - - -
28/01:00am - - - - - SSE 17 20 9 11 - - -
28/12:30am - - - - - SSE 17 24 9 13 - - -
28/12:00am - - - - - SSE 20 30 11 16 - - -
 
Date/Time
WST
Temp
°C
App
Temp
°C
Dew
Point
Rel
Hum
%
Delta-T
°C
Wind Press
QNH
hPa
Press
MSL
hPa
Rain
since 9 am
mm
Dir
 
Spd
km/h
Gust
km/h
Spd
kts
Gust
kts
27/11:30pm - - - - - SSE 19 28 10 15 - - -
27/11:00pm - - - - - SSE 26 32 14 17 - - -
27/10:30pm - - - - - S 39 48 21 26 - - -
27/10:00pm - - - - - S 37 48 20 26 - - -
27/09:30pm - - - - - S 37 48 20 26 - - -
27/09:00pm - - - - - SSW 39 48 21 26 - - -
27/08:30pm - - - - - SSW 39 50 21 27 - - -
27/08:00pm - - - - - SSW 41 46 22 25 - - -
27/07:30pm - - - - - SSW 41 48 22 26 - - -
27/07:00pm - - - - - SSW 37 46 20 25 - - -
27/06:30pm - - - - - SSW 37 46 20 25 - - -
27/06:00pm - - - - - SSW 39 44 21 24 - - -
27/05:30pm - - - - - SSW 37 44 20 24 - - -
27/05:00pm - - - - - SSW 39 46 21 25 - - -
27/04:30pm - - - - - SSW 37 44 20 24 - - -
27/04:00pm - - - - - SSW 37 43 20 23 - - -
27/03:30pm - - - - - SSW 35 43 19 23 - - -
27/03:00pm - - - - - SSW 35 43 19 23 - - -
27/02:30pm - - - - - SSW 35 41 19 22 - - -
27/02:00pm - - - - - SSW 39 46 21 25 - - -
27/01:30pm - - - - - SSW 37 44 20 24 - - -
27/01:00pm - - - - - SSW 37 48 20 26 - - -
27/12:30pm - - - - - SSW 33 43 18 23 - - -
27/12:00pm - - - - - SSW 35 44 19 24 - - -
27/11:30am - - - - - SSW 37 44 20 24 - - -
27/11:00am - - - - - SSW 37 46 20 25 - - -
27/10:30am - - - - - SSW 35 43 19 23 - - -
27/10:00am - - - - - SSW 37 43 20 23 - - -
27/09:30am - - - - - SSW 35 41 19 22 - - -
27/09:00am - - - - - SSW 37 48 20 26 - - -
27/08:30am - - - - - SSW 37 46 20 25 - - -
27/08:00am - - - - - SSW 37 44 20 24 - - -
27/07:30am - - - - - SSW 35 43 19 23 - - -
27/07:00am - - - - - SSW 35 43 19 23 - - -
27/06:30am - - - - - SSW 32 35 17 19 - - -
27/06:00am - - - - - SW 28 33 15 18 - - -
27/05:30am - - - - - SSW 28 33 15 18 - - -
27/05:00am - - - - - SSW 32 35 17 19 - - -
27/04:30am - - - - - SSW 33 37 18 20 - - -
27/04:00am - - - - - SW 30 35 16 19 - - -
27/03:30am - - - - - SW 30 35 16 19 - - -
27/03:00am - - - - - SW 30 33 16 18 - - -
27/02:30am - - - - - SW 26 32 14 17 - - -
27/02:00am - - - - - SW 26 30 14 16 - - -
27/01:30am - - - - - WSW 28 32 15 17 - - -
27/01:00am - - - - - W 24 26 13 14 - - -
27/12:30am - - - - - W 19 22 10 12 - - -
27/12:00am - - - - - W 15 17 8 9 - - -
 
Date/Time
WST
Temp
°C
App
Temp
°C
Dew
Point
Rel
Hum
%
Delta-T
°C
Wind Press
QNH
hPa
Press
MSL
hPa
Rain
since 9 am
mm
Dir
 
Spd
km/h
Gust
km/h
Spd
kts
Gust
kts
26/11:30pm - - - - - WSW 17 19 9 10 - - -
26/11:00pm - - - - - WSW 17 20 9 11 - - -
26/10:30pm - - - - - SW 15 19 8 10 - - -
26/10:00pm - - - - - WSW 17 20 9 11 - - -
26/09:30pm - - - - - WSW 20 24 11 13 - - -
26/09:00pm - - - - - WSW 17 19 9 10 - - -
26/08:30pm - - - - - WSW 15 19 8 10 - - -
26/08:00pm - - - - - SW 17 19 9 10 - - -
26/07:30pm - - - - - WSW 13 20 7 11 - - -
26/07:00pm - - - - - W 9 13 5 7 - - -
26/06:30pm - - - - - W 9 11 5 6 - - -
26/06:00pm - - - - - W 9 15 5 8 - - -
26/05:30pm - - - - - WNW 11 13 6 7 - - -
26/05:00pm - - - - - W 15 19 8 10 - - -
26/04:30pm - - - - - W 20 26 11 14 - - -
26/04:00pm - - - - - WNW 20 24 11 13 - - -
26/03:30pm - - - - - WNW 24 26 13 14 - - -
26/03:00pm - - - - - NW 22 26 12 14 - - -
26/02:30pm - - - - - NW 22 26 12 14 - - -
26/02:00pm - - - - - WNW 20 24 11 13 - - -
26/01:30pm - - - - - NW 22 26 12 14 - - -
26/01:00pm - - - - - NW 20 26 11 14 - - -
26/12:30pm - - - - - NW 22 26 12 14 - - -
26/12:00pm - - - - - NW 20 22 11 12 - - -
26/11:30am - - - - - WNW 19 22 10 12 - - -
26/11:00am - - - - - WNW 22 26 12 14 - - -
26/10:30am - - - - - WNW 20 24 11 13 - - -
26/10:00am - - - - - WNW 13 15 7 8 - - -
26/09:30am - - - - - WNW 9 13 5 7 - - -
26/09:00am - - - - - WNW 9 11 5 6 - - -
26/08:30am - - - - - NNE 7 11 4 6 - - -
26/08:00am - - - - - NW 6 7 3 4 - - -
26/07:30am - - - - - NE 9 13 5 7 - - -
26/07:00am - - - - - ENE 4 9 2 5 - - -
26/06:30am - - - - - CALM 0 0 0 0 - - -
26/06:00am - - - - - ENE 9 13 5 7 - - -
26/05:30am - - - - - CALM 0 0 0 0 - - -
26/05:00am - - - - - ENE 6 7 3 4 - - -
26/04:30am - - - - - ENE 9 11 5 6 - - -
26/04:00am - - - - - ENE 9 9 5 5 - - -
26/03:30am - - - - - NNE 9 11 5 6 - - -
26/03:00am - - - - - N 7 9 4 5 - - -
26/02:30am - - - - - NNE 11 13 6 7 - - -
26/02:00am - - - - - NE 7 9 4 5 - - -
26/01:30am - - - - - NW 4 9 2 5 - - -
26/01:00am - - - - - W 6 7 3 4 - - -
26/12:30am - - - - - W 9 13 5 7 - - -
26/12:00am - - - - - N 6 7 3 4 - - -
 
Date/Time
WST
Temp
°C
App
Temp
°C
Dew
Point
Rel
Hum
%
Delta-T
°C
Wind Press
QNH
hPa
Press
MSL
hPa
Rain
since 9 am
mm
Dir
 
Spd
km/h
Gust
km/h
Spd
kts
Gust
kts
25/11:30pm - - - - - SSW 7 22 4 12 - - -
25/11:00pm - - - - - SSW 13 17 7 9 - - -
25/10:30pm - - - - - SSW 13 15 7 8 - - -
25/10:00pm - - - - - WSW 15 17 8 9 - - -
25/09:30pm - - - - - WSW 15 19 8 10 - - -
25/09:00pm - - - - - W 13 15 7 8 - - -
25/08:30pm - - - - - WNW 9 11 5 6 - - -

Other Formats:

Comma delimited format used in spreadsheet applications
http://www.bom.gov.au/fwo/IDW60801/IDW60801.94607.axf

JavaScript Object Notation format (JSON) in row-major order
http://www.bom.gov.au/fwo/IDW60801/IDW60801.94607.json